Time;durP1;ratioP1;P1;durP2;ratioP2;P2;SDS_P1;SDS_P2;PMS_P1;PMS_P2;Temp;Humidity;BMP_temperature;BMP_pressure;BME280_temperature;BME280_humidity;BME280_pressure;Samples;Min_cycle;Max_cycle;Signal;HPM_P1;HPM_P2
2022/09/26 00:00:47;;;;;;;2.20;1.20;;;17.10;55.90;;;;;;5092110;28;20225;-36
2022/09/26 00:03:18;;;;;;;4.50;1.40;;;17.10;55.90;;;;;;5092513;28;20205;-42
2022/09/26 00:05:48;;;;;;;2.97;1.40;;;17.10;55.80;;;;;;5091628;28;20198;-43
2022/09/26 00:08:19;;;;;;;3.95;1.20;;;17.10;55.80;;;;;;5092233;28;20191;-41
2022/09/26 00:10:59;;;;;;;3.28;1.42;;;17.20;55.90;;;;;;5091882;28;20237;-36
2022/09/26 00:13:34;;;;;;;3.63;1.58;;;17.20;55.80;;;;;;5090525;28;20555;-43
2022/09/26 00:16:05;;;;;;;2.10;1.10;;;17.20;55.80;;;;;;5070643;28;20720;-42
2022/09/26 00:18:36;;;;;;;2.97;1.40;;;17.30;55.80;;;;;;5085246;28;20197;-37
2022/09/26 00:21:08;;;;;;;3.88;1.40;;;17.20;55.70;;;;;;5090677;28;20218;-42
2022/09/26 00:23:40;;;;;;;4.55;1.58;;;17.30;55.80;;;;;;5086859;28;20191;-37
2022/09/26 00:26:11;;;;;;;3.67;1.83;;;17.30;55.80;;;;;;5071115;28;21017;-36
2022/09/26 00:28:44;;;;;;;5.25;1.60;;;17.30;55.70;;;;;;5099021;28;20227;-35
2022/09/26 00:31:17;;;;;;;3.92;1.63;;;17.40;55.80;;;;;;5071835;28;20225;-35
2022/09/26 00:33:48;;;;;;;5.88;1.73;;;17.40;55.80;;;;;;5086253;28;20208;-35
2022/09/26 00:36:19;;;;;;;7.07;1.80;;;17.40;55.70;;;;;;5091750;28;20222;-36
2022/09/26 00:38:50;;;;;;;5.13;1.90;;;17.40;55.60;;;;;;5091086;28;20206;-35
2022/09/26 00:41:21;;;;;;;4.55;1.90;;;17.50;55.70;;;;;;5091582;28;20682;-35
2022/09/26 00:43:55;;;;;;;6.20;1.35;;;17.50;55.60;;;;;;5087103;28;20191;-35
2022/09/26 00:46:31;;;;;;;5.15;1.60;;;17.50;55.60;;;;;;5071353;28;20226;-38
2022/09/26 00:49:15;;;;;;;4.57;1.65;;;17.50;55.60;;;;;;5087174;28;20575;-40
2022/09/26 00:51:52;;;;;;;7.07;2.00;;;17.50;55.60;;;;;;5090693;28;20205;-36
2022/09/26 00:54:23;;;;;;;5.90;1.88;;;17.50;55.60;;;;;;5091520;28;20197;-41
2022/09/26 00:56:56;;;;;;;5.60;1.85;;;17.60;55.60;;;;;;5091023;28;20202;-38
2022/09/26 00:59:32;;;;;;;3.67;1.60;;;17.60;55.60;;;;;;5091562;28;20900;-37
2022/09/26 01:02:03;;;;;;;3.78;1.48;;;17.60;55.60;;;;;;5091266;28;20194;-36
2022/09/26 01:04:37;;;;;;;6.22;1.98;;;17.60;55.60;;;;;;5077112;28;20265;-40
2022/09/26 01:07:18;;;;;;;7.10;2.15;;;17.70;55.60;;;;;;5070032;28;20203;-36
2022/09/26 01:09:50;;;;;;;8.43;2.33;;;17.70;55.60;;;;;;5070994;28;20219;-40
2022/09/26 01:12:22;;;;;;;7.05;2.50;;;17.70;53.90;;;;;;5071058;28;20225;-36
2022/09/26 01:14:56;;;;;;;13.55;2.65;;;17.70;54.20;;;;;;5078902;28;20222;-37
2022/09/26 01:17:28;;;;;;;5.97;2.28;;;17.70;54.20;;;;;;5071114;28;20199;-36
2022/09/26 01:20:09;;;;;;;11.18;2.78;;;17.70;54.30;;;;;;5078830;28;20214;-38
2022/09/26 01:23:12;;;;;;;7.40;2.35;;;17.70;54.30;;;;;;5091517;28;20204;-36
2022/09/26 01:26:03;;;;;;;12.30;2.58;;;17.70;54.40;;;;;;5090350;28;20217;-35
2022/09/26 01:28:53;;;;;;;10.82;2.70;;;17.80;54.50;;;;;;5089601;28;20677;-35
2022/09/26 01:31:37;;;;;;;14.75;2.88;;;17.80;54.60;;;;;;5070792;28;20785;-39
2022/09/26 01:34:13;;;;;;;11.40;3.25;;;17.80;54.50;;;;;;5090081;28;20198;-36
2022/09/26 01:37:09;;;;;;;10.57;3.03;;;17.90;54.70;;;;;;5105849;28;20236;-36
2022/09/26 01:39:58;;;;;;;9.90;2.80;;;17.90;54.70;;;;;;5094325;28;20210;-36
2022/09/26 01:42:37;;;;;;;12.73;3.03;;;17.90;54.70;;;;;;5095009;28;20201;-39
2022/09/26 01:45:14;;;;;;;12.07;3.08;;;18.00;54.70;;;;;;5080420;28;20563;-36
2022/09/26 01:47:50;;;;;;;10.13;2.30;;;18.00;54.70;;;;;;5094685;28;20197;-36
2022/09/26 01:50:29;;;;;;;9.23;2.60;;;18.00;54.70;;;;;;5080406;28;20218;-44
2022/09/26 01:53:03;;;;;;;12.32;2.92;;;18.00;54.70;;;;;;5094106;28;20201;-45
2022/09/26 01:55:38;;;;;;;10.73;2.65;;;18.10;54.90;;;;;;5094118;28;20209;-42
2022/09/26 01:58:13;;;;;;;11.32;2.78;;;18.10;54.90;;;;;;5094325;28;20200;-39
2022/09/26 02:00:47;;;;;;;9.13;2.53;;;18.10;54.90;;;;;;5094932;28;20216;-36
2022/09/26 02:03:22;;;;;;;8.43;2.42;;;18.10;54.90;;;;;;5094425;28;20335;-37
2022/09/26 02:05:57;;;;;;;7.05;2.03;;;18.10;54.90;;;;;;5094593;28;20274;-44
2022/09/26 02:08:32;;;;;;;8.77;2.45;;;18.20;54.90;;;;;;5094204;28;20205;-44
2022/09/26 02:11:06;;;;;;;7.55;2.30;;;18.20;55.00;;;;;;5093641;28;20205;-37
2022/09/26 02:13:41;;;;;;;8.15;2.17;;;18.20;55.00;;;;;;5092073;28;20196;-36
2022/09/26 02:16:17;;;;;;;8.45;2.30;;;18.30;55.00;;;;;;5081413;28;20220;-36
2022/09/26 02:18:53;;;;;;;8.88;2.67;;;18.20;54.90;;;;;;5093201;28;20197;-36
2022/09/26 02:21:27;;;;;;;7.43;2.25;;;18.30;55.00;;;;;;5102439;28;20209;-36
2022/09/26 02:23:58;;;;;;;5.57;2.25;;;18.30;55.60;;;;;;5106675;28;20197;-39
2022/09/26 02:26:28;;;;;;;5.63;2.00;;;18.40;55.10;;;;;;5091235;28;20197;-42
2022/09/26 02:28:59;;;;;;;8.48;2.08;;;18.40;55.10;;;;;;5091916;28;20550;-36
2022/09/26 02:31:35;;;;;;;8.15;2.28;;;18.40;55.10;;;;;;5093451;28;20210;-39
2022/09/26 02:34:08;;;;;;;6.30;2.40;;;18.40;55.10;;;;;;5094130;28;20202;-36
2022/09/26 02:36:39;;;;;;;10.98;2.53;;;18.40;55.00;;;;;;5102343;28;20211;-37
2022/09/26 02:39:12;;;;;;;5.90;2.17;;;18.40;55.10;;;;;;5089540;28;20744;-41
2022/09/26 02:41:50;;;;;;;10.35;2.75;;;18.50;55.70;;;;;;5083036;28;20187;-37
2022/09/26 02:44:41;;;;;;;8.65;2.60;;;18.50;55.10;;;;;;5085641;28;20210;-39
2022/09/26 02:47:33;;;;;;;7.05;2.20;;;18.50;55.10;;;;;;5087450;28;20194;-37
2022/09/26 02:50:30;;;;;;;7.32;2.20;;;18.50;55.10;;;;;;5093474;28;20241;-36
2022/09/26 02:53:17;;;;;;;9.55;2.30;;;18.60;55.00;;;;;;5073241;28;20199;-36
2022/09/26 02:55:56;;;;;;;6.10;2.40;;;18.60;55.00;;;;;;5074977;28;20215;-37
2022/09/26 02:58:36;;;;;;;5.55;1.95;;;18.70;55.70;;;;;;5092870;28;20204;-47
2022/09/26 03:01:18;;;;;;;19.30;4.38;;;18.70;55.00;;;;;;5093570;28;20218;-48
2022/09/26 03:03:54;;;;;;;18.73;4.60;;;18.70;54.30;;;;;;5092738;28;20711;-41
2022/09/26 03:06:32;;;;;;;12.43;3.17;;;18.70;54.20;;;;;;5083402;28;20199;-36
2022/09/26 03:09:05;;;;;;;11.25;2.88;;;18.70;54.70;;;;;;5089371;28;20198;-37
2022/09/26 03:11:37;;;;;;;13.23;3.22;;;18.70;55.50;;;;;;5092915;28;20202;-38
2022/09/26 03:14:09;;;;;;;9.75;3.17;;;18.80;55.00;;;;;;5086454;28;20214;-36
2022/09/26 03:16:44;;;;;;;11.55;3.38;;;18.80;55.10;;;;;;5082886;28;20214;-36
2022/09/26 03:19:21;;;;;;;11.18;3.97;;;18.90;55.10;;;;;;5092465;28;20197;-37
2022/09/26 03:21:53;;;;;;;7.60;2.78;;;19.00;55.10;;;;;;5092789;28;20245;-36
2022/09/26 03:24:26;;;;;;;9.27;2.83;;;19.00;55.20;;;;;;5092440;28;20187;-37
2022/09/26 03:26:58;;;;;;;10.25;3.00;;;19.10;55.20;;;;;;5094691;28;20530;-39
2022/09/26 03:29:30;;;;;;;9.18;3.03;;;19.10;55.20;;;;;;5112799;28;20200;-37
2022/09/26 03:32:01;;;;;;;11.43;2.97;;;19.20;55.10;;;;;;5111745;28;20186;-37
2022/09/26 03:34:32;;;;;;;8.80;3.00;;;19.20;55.10;;;;;;5092312;28;20569;-39
2022/09/26 03:37:04;;;;;;;8.68;3.08;;;19.30;55.10;;;;;;5092194;28;20307;-36
2022/09/26 03:39:35;;;;;;;9.45;3.35;;;19.30;55.00;;;;;;5092604;28;20209;-45
2022/09/26 03:42:06;;;;;;;14.82;3.80;;;19.40;55.00;;;;;;5092781;28;20212;-36
2022/09/26 03:44:37;;;;;;;13.95;4.05;;;19.50;54.80;;;;;;5081519;28;20666;-36
2022/09/26 03:47:07;;;;;;;14.23;3.38;;;19.50;54.80;;;;;;5082858;28;20604;-36
2022/09/26 03:49:38;;;;;;;16.50;4.35;;;19.50;54.80;;;;;;5091829;28;20222;-36
2022/09/26 03:52:12;;;;;;;12.13;3.55;;;19.50;54.80;;;;;;5091584;28;20186;-36
2022/09/26 03:54:43;;;;;;;9.98;3.10;;;19.60;54.80;;;;;;5091518;28;20209;-37
2022/09/26 03:57:15;;;;;;;17.20;4.30;;;19.60;54.70;;;;;;5092937;28;20222;-37
2022/09/26 03:59:45;;;;;;;14.02;3.83;;;19.60;54.70;;;;;;5092002;28;20229;-36
2022/09/26 04:02:17;;;;;;;10.65;3.10;;;19.60;54.60;;;;;;5092930;28;20194;-39
2022/09/26 04:04:47;;;;;;;11.32;3.40;;;19.60;54.60;;;;;;5091985;28;20194;-36
2022/09/26 04:07:20;;;;;;;11.02;3.42;;;19.60;54.60;;;;;;5092604;28;20660;-36
2022/09/26 04:09:50;;;;;;;13.35;4.10;;;19.60;54.50;;;;;;5092385;28;20315;-36
2022/09/26 04:12:22;;;;;;;14.77;3.40;;;19.70;54.60;;;;;;5090814;28;20194;-36
2022/09/26 04:14:53;;;;;;;13.45;3.58;;;19.70;54.60;;;;;;5079448;28;20651;-36
2022/09/26 04:17:23;;;;;;;10.48;3.28;;;19.60;54.60;;;;;;5081489;28;20214;-36
2022/09/26 04:19:54;;;;;;;9.52;3.13;;;19.70;54.80;;;;;;5091523;28;20214;-39
2022/09/26 04:22:27;;;;;;;12.82;3.70;;;19.70;54.70;;;;;;5091284;28;20200;-36
2022/09/26 04:24:59;;;;;;;9.02;2.97;;;19.80;54.70;;;;;;5082210;28;20198;-36
2022/09/26 04:27:30;;;;;;;12.55;3.67;;;19.80;54.70;;;;;;5070987;28;20202;-36
2022/09/26 04:30:01;;;;;;;11.05;3.25;;;19.80;54.60;;;;;;5071838;28;20221;-38
2022/09/26 04:32:32;;;;;;;10.52;3.25;;;19.80;54.60;;;;;;5083176;28;20562;-39
2022/09/26 04:35:03;;;;;;;8.95;3.45;;;19.80;54.50;;;;;;5091604;28;20213;-38
2022/09/26 04:37:35;;;;;;;9.98;3.05;;;19.80;54.40;;;;;;5091209;28;20218;-42
2022/09/26 04:40:06;;;;;;;9.90;3.63;;;19.80;54.30;;;;;;5091251;28;20786;-39
2022/09/26 04:42:37;;;;;;;9.38;3.40;;;19.80;54.20;;;;;;5091430;28;20194;-37
2022/09/26 04:45:09;;;;;;;10.73;3.03;;;19.80;54.30;;;;;;5076404;28;20201;-36
2022/09/26 04:47:39;;;;;;;8.38;3.22;;;19.90;55.10;;;;;;5082860;28;20567;-38
2022/09/26 04:50:10;;;;;;;10.93;3.25;;;19.80;54.40;;;;;;5090429;28;20217;-36
2022/09/26 04:52:43;;;;;;;9.77;3.38;;;19.90;54.50;;;;;;5091658;28;20685;-37
2022/09/26 04:55:14;;;;;;;7.85;2.95;;;19.90;54.50;;;;;;5091277;28;20559;-37
2022/09/26 04:57:45;;;;;;;8.88;3.00;;;19.90;54.40;;;;;;5091582;28;20222;-36
2022/09/26 05:00:17;;;;;;;8.00;3.03;;;19.90;54.30;;;;;;5071624;28;20297;-36
2022/09/26 05:02:48;;;;;;;6.55;2.78;;;19.90;54.30;;;;;;5082670;28;20194;-36
2022/09/26 05:05:18;;;;;;;7.72;2.92;;;19.90;54.30;;;;;;5091057;28;20266;-37
2022/09/26 05:07:51;;;;;;;9.80;3.13;;;19.90;54.30;;;;;;5081822;28;20201;-36
2022/09/26 05:10:22;;;;;;;8.18;3.35;;;19.90;54.40;;;;;;5071386;28;20219;-36
2022/09/26 05:13:49;;;;;;;8.70;2.85;;;19.90;54.40;;;;;;5082549;28;20190;-36
2022/09/26 05:16:20;;;;;;;9.30;3.17;;;19.80;54.40;;;;;;5070953;28;20226;-36
2022/09/26 05:18:53;;;;;;;9.38;2.92;;;19.90;54.50;;;;;;5089726;28;20274;-38
2022/09/26 05:21:24;;;;;;;8.95;2.80;;;19.90;54.50;;;;;;5091024;28;20214;-35
2022/09/26 05:26:45;;;;;;;7.18;2.90;;;19.90;54.60;;;;;;5078444;28;20335;-40
2022/09/26 05:29:18;;;;;;;8.90;2.78;;;19.90;54.60;;;;;;5111208;28;20262;-37
2022/09/26 05:31:49;;;;;;;8.15;2.58;;;19.90;54.50;;;;;;5110646;28;20691;-36
2022/09/26 05:34:20;;;;;;;7.43;2.88;;;19.90;54.40;;;;;;5076431;28;20269;-38
2022/09/26 05:36:50;;;;;;;9.23;3.65;;;19.80;54.40;;;;;;5081660;28;20232;-36
2022/09/26 05:42:10;;;;;;;7.57;4.07;;;19.80;54.40;;;;;;5090957;28;20201;-40
2022/09/26 05:44:41;;;;;;;12.23;5.00;;;19.80;54.40;;;;;;5079772;28;20289;-38
2022/09/26 05:47:11;;;;;;;9.82;5.45;;;19.80;54.40;;;;;;5074215;28;20191;-43
2022/09/26 05:49:42;;;;;;;9.10;5.30;;;19.80;54.40;;;;;;5090131;28;20228;-38
2022/09/26 05:52:13;;;;;;;11.38;6.03;;;19.80;54.60;;;;;;5090582;28;20404;-36
2022/09/26 05:54:46;;;;;;;11.13;5.18;;;19.80;54.60;;;;;;5090930;28;20195;-36
2022/09/26 05:57:16;;;;;;;12.27;6.05;;;19.80;54.50;;;;;;5090384;28;20221;-36
2022/09/26 05:59:47;;;;;;;10.68;4.95;;;19.80;54.50;;;;;;5090206;28;20705;-38
2022/09/26 06:02:18;;;;;;;8.48;4.20;;;19.80;54.50;;;;;;5089795;28;20269;-37
2022/09/26 06:04:48;;;;;;;10.05;4.38;;;19.80;54.50;;;;;;5090062;28;20818;-40
2022/09/26 06:07:19;;;;;;;11.35;4.88;;;19.80;54.50;;;;;;5090663;28;20197;-41
2022/09/26 06:09:52;;;;;;;8.98;4.60;;;19.80;54.50;;;;;;5090371;28;20214;-37
2022/09/26 06:12:23;;;;;;;10.25;4.85;;;19.80;54.50;;;;;;5090115;28;20186;-37
2022/09/26 06:14:54;;;;;;;10.15;4.78;;;19.70;54.40;;;;;;5077286;28;20207;-39
2022/09/26 06:17:25;;;;;;;9.10;4.90;;;19.70;54.50;;;;;;5074128;28;20594;-42
2022/09/26 06:19:56;;;;;;;9.75;4.43;;;19.70;54.50;;;;;;5093401;28;20243;-37
2022/09/26 06:22:27;;;;;;;9.43;4.40;;;19.70;54.50;;;;;;5093994;28;20182;-37
2022/09/26 06:25:00;;;;;;;9.15;4.90;;;19.70;54.50;;;;;;5093981;28;20677;-36
2022/09/26 06:27:31;;;;;;;10.68;5.00;;;19.70;54.60;;;;;;5078602;28;20187;-37
2022/09/26 06:30:01;;;;;;;7.63;4.30;;;19.70;54.60;;;;;;5094143;28;20301;-36
2022/09/26 06:32:32;;;;;;;9.93;4.60;;;19.70;54.60;;;;;;5094385;28;20187;-39
2022/09/26 06:35:03;;;;;;;8.05;4.30;;;19.60;54.50;;;;;;5094165;28;20198;-39
2022/09/26 06:37:34;;;;;;;7.72;4.55;;;19.70;54.60;;;;;;5093282;28;20263;-36
2022/09/26 06:40:08;;;;;;;8.15;4.50;;;19.60;54.50;;;;;;5093428;28;20245;-39
2022/09/26 06:42:39;;;;;;;10.80;4.90;;;19.60;54.50;;;;;;5093521;28;20221;-37
2022/09/26 06:45:11;;;;;;;8.48;4.55;;;19.60;54.50;;;;;;5078977;28;20226;-36
2022/09/26 06:47:42;;;;;;;8.02;4.30;;;19.60;54.50;;;;;;5077370;28;20182;-39
2022/09/26 06:50:13;;;;;;;7.63;4.18;;;19.60;54.50;;;;;;5093925;28;20280;-36
2022/09/26 06:52:44;;;;;;;8.38;4.85;;;19.60;54.50;;;;;;5093032;28;20214;-37
2022/09/26 06:55:16;;;;;;;7.82;4.40;;;19.50;54.50;;;;;;5077403;28;20195;-37
2022/09/26 06:57:47;;;;;;;8.50;4.68;;;19.50;54.60;;;;;;5078391;28;20447;-35
2022/09/26 07:00:18;;;;;;;6.57;4.15;;;19.50;54.60;;;;;;5093310;28;20229;-36
2022/09/26 07:02:58;;;;;;;10.32;4.85;;;19.50;54.60;;;;;;5093796;28;20195;-36
2022/09/26 07:05:29;;;;;;;7.70;4.68;;;19.40;54.60;;;;;;5092640;28;20645;-36
2022/09/26 07:07:59;;;;;;;8.07;4.40;;;19.50;54.60;;;;;;5086195;28;20195;-36
2022/09/26 07:10:33;;;;;;;8.38;4.32;;;19.50;54.60;;;;;;5072675;28;20214;-39
2022/09/26 07:13:04;;;;;;;7.65;4.45;;;19.40;54.50;;;;;;5079513;28;20197;-37
2022/09/26 07:15:36;;;;;;;6.90;4.85;;;19.40;54.50;;;;;;5074744;28;20199;-46
2022/09/26 07:18:07;;;;;;;7.63;4.57;;;19.40;54.50;;;;;;5084578;28;20221;-35
2022/09/26 07:20:41;;;;;;;9.60;5.15;;;19.40;54.50;;;;;;5078178;28;20618;-36
2022/09/26 07:23:15;;;;;;;8.02;4.45;;;19.30;54.60;;;;;;5075139;28;20199;-35
2022/09/26 07:25:50;;;;;;;6.82;4.55;;;19.30;54.60;;;;;;5079743;28;20306;-43
2022/09/26 07:28:21;;;;;;;7.80;4.38;;;19.30;54.60;;;;;;5085351;28;20189;-35
2022/09/26 07:30:52;;;;;;;9.05;4.68;;;19.30;54.60;;;;;;5112841;28;20287;-35
2022/09/26 07:33:22;;;;;;;7.45;4.35;;;19.20;54.60;;;;;;5113762;28;20653;-41
2022/09/26 07:35:53;;;;;;;7.15;4.63;;;19.30;54.60;;;;;;5113112;28;20189;-38
2022/09/26 07:38:24;;;;;;;9.23;4.88;;;19.30;54.60;;;;;;5095689;28;20267;-38
2022/09/26 07:40:57;;;;;;;8.40;5.10;;;19.20;54.60;;;;;;5092200;28;20222;-38
2022/09/26 07:43:27;;;;;;;9.15;5.00;;;19.20;54.60;;;;;;5091165;28;20190;-42
2022/09/26 07:51:32;;;;;;;10.88;5.03;;;19.10;54.80;;;;;;5078119;28;20214;-46
2022/09/26 07:54:03;;;;;;;6.20;4.20;;;19.10;54.60;;;;;;5075908;28;20263;-49
2022/09/26 07:56:35;;;;;;;6.93;4.03;;;19.10;55.30;;;;;;5078792;28;20253;-41
2022/09/26 07:59:06;;;;;;;8.68;4.38;;;19.00;54.70;;;;;;5077322;28;20677;-46
2022/09/26 08:01:38;;;;;;;7.32;4.60;;;19.00;54.70;;;;;;5112111;28;20217;-39
2022/09/26 08:04:12;;;;;;;8.10;4.55;;;19.00;54.70;;;;;;5112691;28;20610;-41
2022/09/26 08:06:42;;;;;;;8.02;4.32;;;19.00;54.70;;;;;;5112257;28;20193;-36
2022/09/26 08:09:13;;;;;;;8.02;4.45;;;19.00;54.70;;;;;;5094971;28;20550;-39
2022/09/26 08:11:46;;;;;;;8.45;4.38;;;19.00;54.80;;;;;;5091679;28;20194;-40
2022/09/26 08:14:17;;;;;;;7.00;4.57;;;18.90;54.70;;;;;;5087764;28;20191;-37
2022/09/26 08:16:48;;;;;;;6.93;4.05;;;18.90;54.70;;;;;;5091624;28;20201;-40
2022/09/26 08:19:18;;;;;;;7.65;4.55;;;18.90;54.70;;;;;;5092087;28;20195;-38
2022/09/26 08:21:50;;;;;;;7.55;4.57;;;18.90;54.80;;;;;;5092204;28;20286;-40
2022/09/26 08:24:20;;;;;;;8.48;4.32;;;18.90;54.80;;;;;;5091742;28;20190;-37
2022/09/26 08:26:55;;;;;;;7.07;3.80;;;18.80;54.70;;;;;;5091568;28;20225;-40
2022/09/26 08:29:26;;;;;;;8.07;4.65;;;18.80;54.70;;;;;;5091395;28;20209;-44
2022/09/26 08:31:57;;;;;;;6.95;4.50;;;18.80;54.70;;;;;;5091780;28;20585;-43
2022/09/26 08:34:27;;;;;;;8.82;4.70;;;18.80;54.70;;;;;;5091845;28;20190;-36
2022/09/26 08:36:58;;;;;;;7.32;3.95;;;18.70;54.60;;;;;;5091198;28;20642;-42
2022/09/26 08:39:29;;;;;;;7.00;3.83;;;18.70;54.60;;;;;;5090840;28;20187;-45
2022/09/26 08:42:14;;;;;;;6.80;3.88;;;18.70;54.70;;;;;;5090850;28;20637;-44
2022/09/26 08:45:11;;;;;;;7.03;4.30;;;18.60;54.70;;;;;;5089118;28;20198;-48
2022/09/26 08:47:49;;;;;;;7.68;4.28;;;18.60;54.70;;;;;;5090713;28;20200;-35
2022/09/26 08:50:24;;;;;;;5.85;3.90;;;18.60;54.70;;;;;;5086112;28;20218;-40
2022/09/26 08:53:01;;;;;;;6.00;3.72;;;18.50;54.70;;;;;;5071009;28;20194;-43
2022/09/26 08:55:36;;;;;;;8.75;4.43;;;18.50;54.70;;;;;;5082504;28;20201;-42
2022/09/26 08:58:17;;;;;;;6.85;4.10;;;18.50;54.80;;;;;;5090623;28;20598;-35
2022/09/26 09:00:50;;;;;;;7.38;4.28;;;18.50;54.70;;;;;;5090302;28;20214;-40
2022/09/26 09:03:29;;;;;;;8.32;4.70;;;18.40;54.70;;;;;;5083349;28;20186;-38
2022/09/26 09:06:05;;;;;;;6.93;4.40;;;18.40;54.60;;;;;;5086864;28;20186;-45
2022/09/26 09:08:40;;;;;;;8.48;4.32;;;18.40;54.60;;;;;;5080103;28;20676;-37
2022/09/26 09:11:21;;;;;;;7.28;4.47;;;18.40;54.50;;;;;;5087611;28;20902;-43
2022/09/26 09:14:16;;;;;;;7.03;4.18;;;18.40;54.50;;;;;;5086488;28;20211;-40
2022/09/26 09:16:58;;;;;;;8.75;4.65;;;18.30;54.60;;;;;;5070754;28;20194;-37
2022/09/26 09:19:39;;;;;;;7.65;4.28;;;18.30;54.60;;;;;;5072220;28;20207;-37
2022/09/26 09:22:35;;;;;;;7.72;4.32;;;18.30;54.60;;;;;;5078895;28;20205;-36
2022/09/26 09:25:15;;;;;;;7.57;4.38;;;18.20;54.60;;;;;;5091005;28;20194;-36
2022/09/26 09:28:01;;;;;;;9.57;4.65;;;18.20;54.60;;;;;;5090421;28;20201;-40
2022/09/26 09:30:42;;;;;;;6.72;4.63;;;18.20;54.70;;;;;;5090405;28;20209;-40
2022/09/26 09:33:17;;;;;;;6.88;4.25;;;18.10;54.70;;;;;;5091674;28;20234;-38
2022/09/26 09:35:52;;;;;;;6.57;4.10;;;18.10;54.60;;;;;;5090266;28;20283;-37
2022/09/26 09:38:24;;;;;;;7.22;4.43;;;18.10;54.60;;;;;;5075120;28;20222;-37
2022/09/26 09:41:01;;;;;;;8.43;4.35;;;18.10;54.70;;;;;;5083093;28;20210;-40
2022/09/26 09:43:38;;;;;;;7.47;4.15;;;18.10;54.60;;;;;;5087997;28;20197;-38
2022/09/26 09:46:18;;;;;;;8.32;4.53;;;18.00;54.70;;;;;;5084655;28;20193;-39
2022/09/26 09:48:52;;;;;;;9.20;4.55;;;18.00;54.70;;;;;;5090502;28;20231;-37
2022/09/26 09:51:32;;;;;;;7.65;4.03;;;18.00;54.70;;;;;;5090464;28;20216;-37
2022/09/26 09:54:23;;;;;;;8.65;4.15;;;18.00;55.40;;;;;;5093596;28;20251;-36
2022/09/26 09:57:14;;;;;;;6.97;3.95;;;17.90;54.70;;;;;;5094967;28;20198;-35
2022/09/26 09:59:58;;;;;;;7.63;4.65;;;17.90;54.80;;;;;;5094088;28;20217;-45
2022/09/26 10:02:38;;;;;;;5.80;3.97;;;17.90;54.80;;;;;;5094444;28;20201;-43
2022/09/26 10:05:24;;;;;;;7.68;4.43;;;17.90;54.80;;;;;;5093870;28;20216;-43
2022/09/26 10:07:58;;;;;;;7.82;4.53;;;17.80;54.80;;;;;;5093864;28;20193;-38
2022/09/26 10:10:37;;;;;;;7.25;4.72;;;17.80;54.80;;;;;;5093967;28;20256;-43
2022/09/26 10:13:09;;;;;;;7.57;4.13;;;17.80;54.80;;;;;;5094638;28;20194;-39
2022/09/26 10:15:45;;;;;;;6.82;3.92;;;17.80;54.80;;;;;;5083740;28;20537;-40
2022/09/26 10:18:22;;;;;;;6.53;4.32;;;17.80;54.80;;;;;;5094087;28;20309;-38
2022/09/26 10:20:54;;;;;;;8.10;4.10;;;17.70;54.80;;;;;;5093440;28;20210;-41
2022/09/26 10:23:31;;;;;;;6.88;4.15;;;17.70;54.90;;;;;;5093763;28;20217;-43
2022/09/26 10:26:05;;;;;;;6.10;4.78;;;17.70;54.90;;;;;;5094004;28;20194;-42
2022/09/26 10:28:44;;;;;;;7.55;4.72;;;17.60;54.90;;;;;;5094234;28;20205;-40
2022/09/26 10:31:25;;;;;;;7.85;4.70;;;17.60;54.90;;;;;;5093144;28;20624;-43
2022/09/26 10:34:01;;;;;;;6.95;4.07;;;17.60;55.00;;;;;;5094234;28;20194;-41
2022/09/26 10:36:36;;;;;;;7.60;4.32;;;17.60;55.00;;;;;;5093983;28;20194;-37
2022/09/26 10:42:06;;;;;;;6.80;3.97;;;17.60;55.00;;;;;;5093603;28;20255;-35
2022/09/26 10:44:37;;;;;;;5.50;3.85;;;17.50;54.90;;;;;;5091168;28;20201;-46
2022/09/26 10:47:09;;;;;;;6.43;4.05;;;17.50;54.90;;;;;;5093563;28;20198;-36
2022/09/26 10:49:49;;;;;;;6.35;4.07;;;17.50;54.90;;;;;;5087481;28;20223;-41
2022/09/26 10:52:24;;;;;;;6.03;4.20;;;17.50;54.90;;;;;;5073374;28;20705;-35
2022/09/26 10:55:02;;;;;;;7.15;4.07;;;17.40;54.90;;;;;;5073119;28;20247;-35
2022/09/26 10:57:38;;;;;;;7.22;3.97;;;17.40;55.00;;;;;;5092745;28;20230;-37
2022/09/26 11:00:10;;;;;;;6.53;4.57;;;17.40;55.00;;;;;;5093205;28;20716;-35
2022/09/26 11:02:50;;;;;;;8.00;4.45;;;17.40;55.00;;;;;;5093662;28;20198;-42
2022/09/26 11:08:13;;;;;;;6.70;4.00;;;17.30;54.90;;;;;;5090421;28;20201;-37
2022/09/26 11:10:48;;;;;;;7.68;4.53;;;17.30;54.90;;;;;;5079523;28;20210;-40
2022/09/26 11:13:20;;;;;;;6.72;4.05;;;17.30;55.00;;;;;;5094070;28;20194;-35
2022/09/26 11:16:00;;;;;;;5.78;3.75;;;17.30;55.00;;;;;;5079651;28;20197;-36
2022/09/26 11:18:41;;;;;;;6.40;4.03;;;17.30;55.00;;;;;;5092363;28;20230;-37
2022/09/26 11:21:22;;;;;;;6.13;4.25;;;17.20;55.00;;;;;;5102272;28;20291;-37
2022/09/26 11:24:03;;;;;;;7.13;4.15;;;17.20;55.00;;;;;;5113740;28;20292;-38
2022/09/26 11:26:38;;;;;;;6.22;3.88;;;17.20;55.00;;;;;;5114140;28;20193;-37
2022/09/26 11:29:16;;;;;;;6.63;3.90;;;17.10;55.00;;;;;;5112685;28;20769;-37
2022/09/26 11:31:49;;;;;;;5.78;3.58;;;17.10;55.00;;;;;;5112446;28;20189;-37
2022/09/26 11:34:26;;;;;;;5.50;3.83;;;17.10;55.10;;;;;;5112250;28;20197;-38
2022/09/26 11:37:16;;;;;;;6.10;3.75;;;17.10;55.10;;;;;;5112835;28;20592;-40
2022/09/26 11:40:29;;;;;;;6.95;3.88;;;17.10;55.10;;;;;;5071533;28;20678;-39
2022/09/26 11:43:16;;;;;;;5.47;3.65;;;17.10;55.10;;;;;;5071578;28;20662;-38
2022/09/26 11:46:03;;;;;;;6.70;3.88;;;17.00;54.90;;;;;;5071554;28;20202;-38
2022/09/26 11:49:09;;;;;;;6.63;3.58;;;17.00;54.90;;;;;;5071557;28;20597;-37
2022/09/26 11:51:52;;;;;;;5.78;3.85;;;17.00;55.00;;;;;;5071189;28;20670;-39
2022/09/26 11:54:41;;;;;;;6.40;3.65;;;17.00;55.10;;;;;;5088225;28;20227;-36
2022/09/26 11:57:24;;;;;;;6.03;3.67;;;16.90;55.00;;;;;;5091365;28;20197;-38
2022/09/26 12:00:05;;;;;;;7.60;4.07;;;16.90;55.10;;;;;;5091326;28;20264;-37
2022/09/26 12:03:10;;;;;;;5.82;3.58;;;16.90;55.10;;;;;;5091481;28;20201;-43
2022/09/26 12:05:50;;;;;;;5.60;3.30;;;16.90;55.10;;;;;;5055606;28;20693;-36
2022/09/26 12:08:34;;;;;;;6.28;3.55;;;16.90;55.10;;;;;;5082905;28;20602;-40
2022/09/26 12:11:18;;;;;;;6.30;3.88;;;16.90;55.10;;;;;;5070937;28;20260;-44
2022/09/26 12:13:55;;;;;;;6.00;3.67;;;16.80;55.10;;;;;;5074509;28;20209;-36
2022/09/26 12:16:34;;;;;;;5.22;3.50;;;16.90;55.10;;;;;;5090420;28;20194;-39
2022/09/26 12:19:14;;;;;;;6.35;3.55;;;16.80;55.10;;;;;;5090679;28;20314;-36
2022/09/26 12:24:50;;;;;;;6.65;3.50;;;16.80;55.10;;;;;;5090145;28;20252;-36
2022/09/26 12:27:28;;;;;;;6.30;3.53;;;16.80;55.10;;;;;;5090259;28;20213;-39
2022/09/26 12:30:07;;;;;;;6.20;3.33;;;16.80;55.10;;;;;;5090654;28;20226;-36
2022/09/26 12:33:03;;;;;;;5.20;3.25;;;16.80;55.10;;;;;;5090433;28;20205;-36
2022/09/26 12:35:45;;;;;;;4.65;3.40;;;16.70;55.10;;;;;;5090040;28;20649;-39
2022/09/26 12:38:40;;;;;;;4.72;2.95;;;16.70;55.10;;;;;;5084351;28;20540;-37
2022/09/26 12:41:22;;;;;;;5.85;3.58;;;16.70;55.10;;;;;;5070233;28;20469;-39
2022/09/26 12:44:21;;;;;;;5.13;3.38;;;16.70;55.70;;;;;;5076737;28;20229;-36
2022/09/26 12:47:20;;;;;;;4.80;3.38;;;16.70;55.10;;;;;;5090469;28;20205;-36
2022/09/26 12:50:05;;;;;;;4.93;3.05;;;16.70;55.10;;;;;;5090319;28;20222;-38
2022/09/26 12:53:00;;;;;;;6.38;3.50;;;16.70;55.10;;;;;;5090370;28;20642;-41
2022/09/26 12:55:44;;;;;;;4.72;3.05;;;16.60;55.00;;;;;;5070332;28;20250;-41
2022/09/26 12:58:29;;;;;;;4.13;2.70;;;16.60;55.10;;;;;;5069961;28;20892;-36
2022/09/26 13:01:15;;;;;;;6.40;3.70;;;16.60;55.10;;;;;;5070253;28;20215;-37
2022/09/26 13:04:16;;;;;;;6.63;3.58;;;16.60;55.10;;;;;;5070164;28;20206;-36
2022/09/26 13:07:33;;;;;;;5.28;3.05;;;16.60;55.20;;;;;;5069759;28;20198;-37
2022/09/26 13:10:33;;;;;;;4.32;2.88;;;16.60;55.20;;;;;;5045917;28;20219;-38
2022/09/26 13:13:50;;;;;;;3.50;2.38;;;16.50;55.10;;;;;;5036557;28;20201;-36
2022/09/26 13:16:33;;;;;;;5.03;3.13;;;16.50;55.20;;;;;;5069849;28;20563;-37
2022/09/26 13:19:14;;;;;;;4.43;2.95;;;16.50;55.10;;;;;;5073373;28;20214;-44
2022/09/26 13:21:50;;;;;;;5.55;3.00;;;16.50;55.10;;;;;;5089846;28;20194;-36
2022/09/26 13:24:26;;;;;;;4.72;2.85;;;16.50;55.10;;;;;;5077294;28;20198;-37
2022/09/26 13:27:06;;;;;;;4.60;2.95;;;16.50;55.10;;;;;;5081594;28;20269;-36
2022/09/26 13:29:39;;;;;;;4.95;2.85;;;16.40;55.10;;;;;;5089687;28;20210;-36
2022/09/26 13:32:21;;;;;;;4.70;2.92;;;16.40;55.20;;;;;;5089742;28;20613;-36
2022/09/26 13:34:59;;;;;;;4.88;2.92;;;16.40;55.20;;;;;;5089485;28;20205;-39
2022/09/26 13:37:46;;;;;;;4.88;2.95;;;16.40;55.20;;;;;;5090378;28;20302;-35
2022/09/26 13:40:33;;;;;;;4.40;2.70;;;16.40;55.20;;;;;;5089196;28;20309;-39
2022/09/26 13:43:17;;;;;;;4.63;2.72;;;16.40;55.20;;;;;;5089855;28;20193;-36
2022/09/26 13:46:02;;;;;;;4.97;2.88;;;16.40;55.20;;;;;;5069624;28;20195;-39
2022/09/26 13:48:50;;;;;;;3.75;2.50;;;16.30;55.20;;;;;;5069476;28;20221;-38
2022/09/26 13:51:26;;;;;;;4.05;2.70;;;16.40;55.20;;;;;;5068890;28;20226;-36
2022/09/26 13:54:04;;;;;;;5.65;2.78;;;16.40;55.20;;;;;;5075970;28;20201;-40